Time;durP1;ratioP1;P1;durP2;ratioP2;P2;SDS_P1;SDS_P2;PMS_P1;PMS_P2;Temp;Humidity;BMP_temperature;BMP_pressure;BME280_temperature;BME280_humidity;BME280_pressure;Samples;Min_cycle;Max_cycle;Signal;HPM_P1;HPM_P2
2021/04/22 00:01:27;;;;;;;8.15;7.30;;;10.10;95.20;;;;;;5108335;28;20195;-52
2021/04/22 00:03:53;;;;;;;11.50;7.53;;;10.20;95.30;;;;;;5108733;28;20191;-52
2021/04/22 00:06:19;;;;;;;7.50;6.70;;;10.40;95.60;;;;;;5108491;28;20423;-52
2021/04/22 00:08:48;;;;;;;8.33;7.53;;;10.20;95.70;;;;;;5108566;28;20613;-52
2021/04/22 00:11:14;;;;;;;8.20;6.85;;;10.10;95.70;;;;;;5108587;28;20548;-51
2021/04/22 00:13:40;;;;;;;8.20;7.40;;;10.50;96.20;;;;;;5109604;28;20271;-51
2021/04/22 00:16:06;;;;;;;8.00;7.20;;;10.40;96.10;;;;;;5106688;28;20180;-52
2021/04/22 00:18:32;;;;;;;7.50;6.80;;;10.30;96.00;;;;;;5107969;28;20180;-52
2021/04/22 00:20:58;;;;;;;8.10;7.00;;;10.30;95.90;;;;;;5108268;28;20437;-52
2021/04/22 00:23:24;;;;;;;8.33;7.53;;;10.20;95.80;;;;;;5107880;28;20442;-52
2021/04/22 00:25:50;;;;;;;7.25;6.55;;;10.40;96.00;;;;;;5108638;28;20509;-52
2021/04/22 00:28:16;;;;;;;8.33;7.53;;;10.20;95.90;;;;;;5108118;28;20212;-52
2021/04/22 00:30:43;;;;;;;9.07;8.23;;;10.20;96.00;;;;;;5107727;28;20482;-52
2021/04/22 00:33:14;;;;;;;7.60;6.90;;;10.40;96.00;;;;;;5107203;28;20204;-52
2021/04/22 00:35:40;;;;;;;8.90;7.95;;;10.40;96.20;;;;;;5108244;28;20180;-52
2021/04/22 00:38:07;;;;;;;8.03;7.23;;;10.20;96.10;;;;;;5102339;28;20173;-52
2021/04/22 00:40:33;;;;;;;9.18;7.90;;;10.40;96.40;;;;;;5107886;28;20816;-51
2021/04/22 00:43:04;;;;;;;8.97;8.17;;;10.30;96.20;;;;;;5108020;28;20656;-51
2021/04/22 00:45:30;;;;;;;8.10;7.40;;;10.30;96.10;;;;;;5107869;28;20408;-52
2021/04/22 00:47:56;;;;;;;9.48;7.82;;;10.50;96.00;;;;;;5108222;28;20270;-52
2021/04/22 00:50:24;;;;;;;8.83;7.93;;;10.50;96.00;;;;;;5107602;28;20176;-52
2021/04/22 00:52:54;;;;;;;7.63;6.93;;;10.40;96.00;;;;;;5108074;28;20786;-52
2021/04/22 00:55:20;;;;;;;8.57;7.15;;;10.50;96.10;;;;;;5108091;28;20627;-52
2021/04/22 00:57:46;;;;;;;9.20;8.20;;;10.60;95.90;;;;;;5106708;28;20275;-52
2021/04/22 01:00:14;;;;;;;11.10;7.67;;;10.70;96.20;;;;;;5109030;28;20487;-52
2021/04/22 01:02:40;;;;;;;8.93;8.02;;;10.80;97.20;;;;;;5107292;28;20203;-52
2021/04/22 01:05:11;;;;;;;9.10;7.63;;;11.00;97.50;;;;;;5106517;28;20190;-52
2021/04/22 01:07:41;;;;;;;9.02;8.23;;;11.00;98.80;;;;;;5107671;28;20183;-52
2021/04/22 01:10:08;;;;;;;10.95;8.00;;;10.60;99.90;;;;;;5107619;28;20246;-52
2021/04/22 01:12:34;;;;;;;9.07;8.27;;;10.60;99.90;;;;;;5106726;28;20221;-52
2021/04/22 01:15:00;;;;;;;8.87;8.07;;;10.70;99.90;;;;;;5107857;28;20507;-52
2021/04/22 01:17:26;;;;;;;13.93;10.20;;;10.80;99.90;;;;;;5107480;28;20183;-52
2021/04/22 01:19:51;;;;;;;8.90;8.07;;;11.10;99.90;;;;;;5107747;28;20175;-52
2021/04/22 01:22:17;;;;;;;9.80;8.77;;;11.00;99.90;;;;;;5107953;28;20455;-52
2021/04/22 01:24:43;;;;;;;10.20;8.30;;;11.10;99.90;;;;;;5109127;28;20592;-52
2021/04/22 01:27:11;;;;;;;10.90;9.80;;;10.90;99.90;;;;;;5107839;28;20762;-52
2021/04/22 01:29:38;;;;;;;10.43;9.40;;;10.90;99.90;;;;;;5108454;28;20645;-52
2021/04/22 01:32:05;;;;;;;10.70;9.63;;;10.70;99.90;;;;;;5103270;28;20620;-52
2021/04/22 01:34:31;;;;;;;11.25;9.25;;;10.60;99.90;;;;;;5107430;28;20540;-52
2021/04/22 01:36:57;;;;;;;9.90;8.90;;;10.90;99.90;;;;;;5107699;28;20232;-51
2021/04/22 01:39:23;;;;;;;12.27;11.00;;;10.90;99.90;;;;;;5108593;28;20172;-52
2021/04/22 01:41:48;;;;;;;12.63;11.33;;;10.90;99.90;;;;;;5107689;28;20870;-52
2021/04/22 01:44:14;;;;;;;11.97;10.63;;;11.10;99.90;;;;;;5107752;28;20180;-51
2021/04/22 01:46:40;;;;;;;11.00;9.90;;;11.40;99.90;;;;;;5111485;28;20188;-52
2021/04/22 01:49:05;;;;;;;11.90;10.70;;;11.10;99.90;;;;;;5111734;28;20190;-52
2021/04/22 01:51:31;;;;;;;12.53;11.23;;;11.10;99.90;;;;;;5111286;28;20220;-52
2021/04/22 01:53:57;;;;;;;15.83;12.53;;;11.20;99.90;;;;;;5111589;28;20275;-52
2021/04/22 01:56:23;;;;;;;12.87;11.63;;;11.10;99.90;;;;;;5111674;28;20176;-52
2021/04/22 01:58:48;;;;;;;12.20;10.90;;;10.90;99.90;;;;;;5111003;28;20187;-52
2021/04/22 02:01:14;;;;;;;12.90;11.60;;;11.20;99.90;;;;;;5112909;27;20473;-52
2021/04/22 02:03:40;;;;;;;12.60;11.30;;;11.10;99.90;;;;;;5111264;28;20188;-52
2021/04/22 02:06:08;;;;;;;13.33;11.93;;;11.00;99.90;;;;;;5112777;28;20279;-52
2021/04/22 02:08:35;;;;;;;13.15;11.75;;;11.00;99.90;;;;;;5111289;28;20185;-52
2021/04/22 02:11:05;;;;;;;14.27;12.73;;;10.90;99.90;;;;;;5110544;28;20283;-52
2021/04/22 02:13:32;;;;;;;14.13;12.38;;;11.10;99.90;;;;;;5109672;28;20200;-52
2021/04/22 02:15:58;;;;;;;16.27;12.80;;;11.10;99.90;;;;;;5111012;28;20180;-52
2021/04/22 02:18:24;;;;;;;15.25;13.75;;;11.20;99.90;;;;;;5110403;28;20184;-52
2021/04/22 02:20:50;;;;;;;17.20;15.43;;;11.20;99.90;;;;;;5110452;28;20188;-52
2021/04/22 02:23:18;;;;;;;19.27;16.17;;;11.20;99.90;;;;;;5110642;28;20564;-52
2021/04/22 02:25:44;;;;;;;17.63;15.00;;;11.30;99.90;;;;;;5110868;28;20876;-52
2021/04/22 02:28:10;;;;;;;17.25;15.43;;;11.40;99.90;;;;;;5110603;28;20180;-52
2021/04/22 02:30:39;;;;;;;20.30;16.98;;;11.60;99.90;;;;;;5110276;28;20297;-51
2021/04/22 02:33:13;;;;;;;19.42;17.45;;;11.30;99.90;;;;;;5103825;28;20193;-52
2021/04/22 02:35:42;;;;;;;19.63;17.48;;;11.60;99.90;;;;;;5111080;28;20184;-52
2021/04/22 02:38:11;;;;;;;25.23;20.42;;;11.40;99.90;;;;;;5110109;28;20695;-52
2021/04/22 02:40:38;;;;;;;25.67;20.65;;;11.60;99.90;;;;;;5107653;28;20216;-52
2021/04/22 02:43:06;;;;;;;24.70;20.05;;;11.60;99.90;;;;;;5109750;28;20200;-52
2021/04/22 02:45:35;;;;;;;26.15;21.17;;;11.00;99.90;;;;;;5110594;28;20180;-52
2021/04/22 02:48:02;;;;;;;22.00;18.95;;;11.30;99.90;;;;;;5110420;28;20270;-52
2021/04/22 02:50:31;;;;;;;23.98;19.98;;;11.70;99.90;;;;;;5109702;28;20658;-52
2021/04/22 02:52:57;;;;;;;22.83;20.20;;;11.60;99.90;;;;;;5110150;28;20206;-52
2021/04/22 02:55:23;;;;;;;29.75;22.23;;;11.50;99.90;;;;;;5109117;28;20640;-52
2021/04/22 02:57:49;;;;;;;23.67;20.77;;;11.70;99.90;;;;;;5109661;28;20279;-52
2021/04/22 03:00:18;;;;;;;26.17;22.10;;;11.70;99.90;;;;;;5109597;28;20911;-52
2021/04/22 03:02:45;;;;;;;25.33;21.98;;;11.50;99.90;;;;;;5109739;28;20294;-52
2021/04/22 03:05:11;;;;;;;25.73;21.73;;;11.70;99.90;;;;;;5109952;28;20181;-52
2021/04/22 03:07:37;;;;;;;23.15;20.60;;;11.80;99.90;;;;;;5109629;28;20222;-52
2021/04/22 03:10:05;;;;;;;23.77;21.23;;;11.80;99.90;;;;;;5109388;28;20176;-52
2021/04/22 03:12:30;;;;;;;25.65;21.55;;;11.80;99.90;;;;;;5102855;28;20246;-52
2021/04/22 03:14:56;;;;;;;25.47;21.73;;;11.70;99.90;;;;;;5109900;28;20587;-52
2021/04/22 03:17:21;;;;;;;24.73;21.80;;;11.60;99.90;;;;;;5109852;28;20181;-52
2021/04/22 03:19:47;;;;;;;23.27;20.40;;;11.90;99.90;;;;;;5109439;28;20245;-52
2021/04/22 03:22:13;;;;;;;24.27;20.70;;;11.70;99.90;;;;;;5109085;28;20679;-52
2021/04/22 03:24:38;;;;;;;25.33;22.30;;;12.00;99.90;;;;;;5110256;28;20182;-52
2021/04/22 03:27:05;;;;;;;22.80;20.40;;;11.90;99.90;;;;;;5109686;28;20181;-52
2021/04/22 03:29:30;;;;;;;22.40;20.00;;;11.70;99.90;;;;;;5108940;28;20657;-52
2021/04/22 03:31:56;;;;;;;24.93;21.23;;;11.90;99.90;;;;;;5109253;28;20251;-51
2021/04/22 03:34:21;;;;;;;23.27;20.83;;;11.70;99.90;;;;;;5109231;28;20229;-52
2021/04/22 03:36:47;;;;;;;23.87;18.90;;;11.90;99.90;;;;;;5109445;28;20581;-52
2021/04/22 03:39:13;;;;;;;22.40;20.10;;;11.80;99.90;;;;;;5108187;28;20174;-52
2021/04/22 03:41:39;;;;;;;22.67;20.27;;;11.80;99.90;;;;;;5109229;28;20213;-52
2021/04/22 03:44:05;;;;;;;22.52;19.90;;;11.70;99.90;;;;;;5109102;28;20188;-52
2021/04/22 03:46:31;;;;;;;22.57;20.13;;;11.70;99.90;;;;;;5108917;28;20554;-52
2021/04/22 03:48:57;;;;;;;23.23;19.65;;;11.80;99.90;;;;;;5108820;28;20442;-52
2021/04/22 03:51:26;;;;;;;22.23;20.03;;;11.60;99.90;;;;;;5108677;28;20217;-52
2021/04/22 03:53:51;;;;;;;20.55;18.30;;;11.50;99.90;;;;;;5108714;28;20182;-52
2021/04/22 03:56:17;;;;;;;20.97;18.17;;;11.60;99.90;;;;;;5109082;28;20178;-52
2021/04/22 03:58:42;;;;;;;19.90;17.80;;;11.80;99.90;;;;;;5108838;28;20181;-52
2021/04/22 04:01:08;;;;;;;22.23;19.43;;;11.80;99.90;;;;;;5108457;28;20194;-52
2021/04/22 04:03:34;;;;;;;20.23;17.43;;;11.60;99.90;;;;;;5108624;28;20173;-52
2021/04/22 04:05:59;;;;;;;20.10;17.30;;;11.00;99.90;;;;;;5108645;28;20579;-52
2021/04/22 04:08:25;;;;;;;22.10;18.70;;;11.50;99.90;;;;;;5107704;28;20226;-52
2021/04/22 04:10:51;;;;;;;20.53;18.37;;;11.40;99.90;;;;;;5108164;28;20667;-52
2021/04/22 04:13:16;;;;;;;20.17;18.00;;;11.10;99.90;;;;;;5100210;28;20178;-52
2021/04/22 04:15:45;;;;;;;20.00;17.40;;;11.50;99.90;;;;;;5108729;28;20457;-52
2021/04/22 04:18:13;;;;;;;21.40;18.23;;;11.10;99.90;;;;;;5108048;28;20234;-51
2021/04/22 04:20:39;;;;;;;19.33;17.35;;;11.30;99.90;;;;;;5108213;28;20263;-52
2021/04/22 04:23:04;;;;;;;20.57;18.03;;;11.20;99.90;;;;;;5100815;28;20282;-52
2021/04/22 04:25:30;;;;;;;19.93;17.40;;;11.10;99.90;;;;;;5108619;28;20409;-52
2021/04/22 04:27:56;;;;;;;19.90;17.20;;;10.70;99.90;;;;;;5107699;28;20446;-51
2021/04/22 04:30:22;;;;;;;19.73;17.60;;;10.70;99.90;;;;;;5108262;28;20210;-52
2021/04/22 04:32:48;;;;;;;19.77;17.38;;;10.80;99.90;;;;;;5107266;28;20235;-52
2021/04/22 04:35:14;;;;;;;20.42;17.27;;;10.70;99.90;;;;;;5108147;28;20642;-52
2021/04/22 04:37:40;;;;;;;21.77;18.10;;;10.80;99.90;;;;;;5108886;28;20190;-52
2021/04/22 04:40:08;;;;;;;24.30;18.08;;;10.60;99.90;;;;;;5107855;28;20255;-52
2021/04/22 04:42:35;;;;;;;22.38;18.88;;;10.60;99.90;;;;;;5098927;28;20204;-52
2021/04/22 04:45:00;;;;;;;23.40;19.50;;;10.30;99.90;;;;;;5105026;28;20422;-58
2021/04/22 04:47:26;;;;;;;21.80;19.60;;;10.20;99.90;;;;;;5103283;28;20840;-57
2021/04/22 04:49:52;;;;;;;21.37;19.07;;;10.30;99.90;;;;;;5096519;28;20736;-58
2021/04/22 04:52:17;;;;;;;20.50;17.97;;;10.60;99.90;;;;;;5099094;28;20564;-58
2021/04/22 04:54:43;;;;;;;21.03;17.90;;;10.40;99.90;;;;;;5106538;27;20188;-52
2021/04/22 04:57:09;;;;;;;27.93;18.50;;;10.40;99.90;;;;;;5099311;28;20223;-54
2021/04/22 04:59:36;;;;;;;20.90;18.65;;;10.80;99.90;;;;;;5094031;28;20176;-53
2021/04/22 05:02:02;;;;;;;24.40;19.20;;;10.40;99.90;;;;;;5098250;28;20668;-54
2021/04/22 05:04:27;;;;;;;19.90;17.80;;;10.80;99.90;;;;;;5100863;27;20284;-54
2021/04/22 05:06:53;;;;;;;20.80;17.13;;;10.60;99.90;;;;;;5099200;28;20493;-51
2021/04/22 05:09:19;;;;;;;22.20;18.50;;;10.60;99.90;;;;;;5095903;28;20191;-51
2021/04/22 05:11:44;;;;;;;22.27;18.13;;;10.90;99.90;;;;;;5105738;28;20213;-50
2021/04/22 05:14:10;;;;;;;20.73;17.40;;;10.80;99.90;;;;;;5107915;28;20171;-51
2021/04/22 05:16:35;;;;;;;20.57;18.57;;;10.60;99.90;;;;;;5105581;27;20743;-51
2021/04/22 05:19:01;;;;;;;21.57;19.00;;;10.40;99.90;;;;;;5102332;28;20222;-51
2021/04/22 05:21:27;;;;;;;19.80;17.70;;;10.80;99.90;;;;;;5098719;28;20204;-50
2021/04/22 05:23:53;;;;;;;20.40;15.83;;;10.80;99.90;;;;;;5100519;28;20442;-56
2021/04/22 05:26:19;;;;;;;20.67;17.93;;;10.90;99.90;;;;;;5102946;28;20180;-56
2021/04/22 05:28:45;;;;;;;19.20;16.33;;;11.00;99.90;;;;;;5102070;28;20180;-55
2021/04/22 05:31:11;;;;;;;21.13;18.50;;;10.90;99.90;;;;;;5105479;28;20230;-57
2021/04/22 05:33:37;;;;;;;19.07;16.73;;;11.00;99.90;;;;;;5105267;28;20431;-56
2021/04/22 05:36:04;;;;;;;19.40;17.00;;;11.00;99.90;;;;;;5106592;28;20184;-57
2021/04/22 05:38:30;;;;;;;18.38;15.80;;;11.10;99.90;;;;;;5096870;28;20267;-56
2021/04/22 05:40:55;;;;;;;15.83;14.10;;;11.40;99.90;;;;;;5105418;28;20272;-56
2021/04/22 05:43:24;;;;;;;18.77;16.30;;;11.90;99.90;;;;;;5095966;28;20614;-56
2021/04/22 05:45:50;;;;;;;19.95;17.50;;;12.00;99.90;;;;;;5097500;28;20207;-56
2021/04/22 05:48:19;;;;;;;15.70;14.00;;;12.10;99.70;;;;;;5107693;28;20177;-58
2021/04/22 05:50:44;;;;;;;23.00;16.70;;;12.00;99.30;;;;;;5106333;28;20527;-58
2021/04/22 05:53:10;;;;;;;22.00;16.57;;;12.30;99.20;;;;;;5103122;28;20201;-56
2021/04/22 05:55:35;;;;;;;16.87;14.07;;;12.20;98.40;;;;;;5122112;28;20182;-56
2021/04/22 05:58:01;;;;;;;16.87;15.07;;;12.60;99.20;;;;;;5105858;28;20177;-57
2021/04/22 06:00:29;;;;;;;17.63;15.70;;;12.70;97.90;;;;;;5098598;28;20607;-58
2021/04/22 06:02:57;;;;;;;17.50;15.70;;;12.70;97.10;;;;;;5099988;28;20206;-60
2021/04/22 06:05:23;;;;;;;25.38;16.98;;;12.70;97.10;;;;;;5106287;28;20231;-59
2021/04/22 06:07:48;;;;;;;19.20;15.73;;;12.60;97.30;;;;;;5105164;28;20186;-59
2021/04/22 06:10:15;;;;;;;18.20;16.27;;;12.60;97.50;;;;;;5103125;28;20509;-59
2021/04/22 06:12:41;;;;;;;19.98;15.95;;;12.40;96.70;;;;;;5104631;28;20620;-60
2021/04/22 06:15:08;;;;;;;20.00;18.00;;;12.20;97.10;;;;;;5101071;28;20650;-53
2021/04/22 06:17:34;;;;;;;21.35;17.40;;;12.40;97.40;;;;;;5096703;28;20514;-52
2021/04/22 06:19:59;;;;;;;21.03;17.27;;;12.00;97.50;;;;;;5104160;28;20267;-52
2021/04/22 06:22:25;;;;;;;19.70;17.63;;;12.00;98.00;;;;;;5104624;28;20430;-52
2021/04/22 06:24:51;;;;;;;18.93;16.83;;;12.00;98.10;;;;;;5103891;28;20640;-55
2021/04/22 06:27:16;;;;;;;20.53;16.50;;;11.90;97.90;;;;;;5105248;28;20211;-52
2021/04/22 06:29:42;;;;;;;20.27;16.20;;;11.80;98.70;;;;;;5098588;28;20190;-53
2021/04/22 06:32:09;;;;;;;23.73;17.20;;;11.80;99.00;;;;;;5101423;27;20221;-50
2021/04/22 06:34:34;;;;;;;22.85;17.20;;;11.50;98.80;;;;;;5105591;28;20264;-52
2021/04/22 06:37:02;;;;;;;20.00;17.20;;;11.80;98.90;;;;;;5099225;28;20621;-52
2021/04/22 06:39:28;;;;;;;20.38;17.05;;;11.90;98.80;;;;;;5103773;28;20169;-56
2021/04/22 06:41:53;;;;;;;20.63;17.10;;;11.70;98.70;;;;;;5105594;28;20216;-56
2021/04/22 06:44:19;;;;;;;19.97;16.90;;;12.20;98.40;;;;;;5109310;28;20392;-56
2021/04/22 06:46:45;;;;;;;18.80;16.27;;;11.70;98.00;;;;;;5107662;28;20181;-51
2021/04/22 06:49:11;;;;;;;17.90;15.37;;;11.80;98.30;;;;;;5107492;28;20180;-51
2021/04/22 06:51:36;;;;;;;18.43;16.03;;;11.80;98.30;;;;;;5109896;28;20220;-51
2021/04/22 06:54:05;;;;;;;18.17;15.53;;;11.80;98.80;;;;;;5104731;28;20193;-54
2021/04/22 06:56:31;;;;;;;16.35;14.65;;;11.80;98.50;;;;;;5109780;28;20262;-52
2021/04/22 06:59:00;;;;;;;17.57;15.77;;;11.70;98.10;;;;;;5108488;28;20321;-55
2021/04/22 07:01:26;;;;;;;18.20;15.40;;;11.60;98.30;;;;;;5096499;28;20299;-54
2021/04/22 07:03:52;;;;;;;17.15;14.60;;;11.20;98.10;;;;;;5106127;28;20214;-53
2021/04/22 07:06:18;;;;;;;20.40;15.00;;;11.00;98.50;;;;;;5102075;28;20196;-55
2021/04/22 07:08:43;;;;;;;21.73;17.80;;;11.60;98.50;;;;;;5105383;28;20252;-54
2021/04/22 07:11:09;;;;;;;18.20;15.10;;;11.40;98.30;;;;;;5105339;28;20210;-53
2021/04/22 07:13:35;;;;;;;17.08;14.50;;;11.00;98.50;;;;;;5101117;28;20526;-53
2021/04/22 07:16:00;;;;;;;15.80;13.83;;;11.10;98.90;;;;;;5106845;28;20716;-51
2021/04/22 07:18:26;;;;;;;17.53;15.70;;;11.50;98.50;;;;;;5101154;28;20269;-51
2021/04/22 07:20:52;;;;;;;17.77;14.27;;;11.60;98.20;;;;;;5106350;28;20265;-53
2021/04/22 07:23:17;;;;;;;17.77;13.57;;;11.80;97.80;;;;;;5108234;28;20211;-54
2021/04/22 07:25:43;;;;;;;18.27;14.70;;;11.90;97.10;;;;;;5107475;28;20193;-55
2021/04/22 07:28:09;;;;;;;22.23;13.83;;;12.00;97.10;;;;;;5104959;28;20180;-55
2021/04/22 07:30:36;;;;;;;18.02;14.07;;;11.70;96.60;;;;;;5108491;28;20193;-55
2021/04/22 07:33:05;;;;;;;21.45;15.43;;;11.50;97.60;;;;;;5091665;28;20324;-55
2021/04/22 07:35:31;;;;;;;15.80;14.05;;;11.70;97.70;;;;;;5107720;28;20239;-56
2021/04/22 07:37:57;;;;;;;17.43;14.10;;;11.50;97.40;;;;;;5108680;28;20177;-53
2021/04/22 07:40:25;;;;;;;17.50;14.20;;;12.20;97.50;;;;;;5108999;28;20418;-54
2021/04/22 07:42:51;;;;;;;17.98;14.63;;;12.10;96.20;;;;;;5102768;28;20429;-52
2021/04/22 07:45:20;;;;;;;20.10;14.43;;;12.20;96.20;;;;;;5108362;28;20288;-53
2021/04/22 07:47:45;;;;;;;19.10;14.35;;;12.60;96.00;;;;;;5104835;28;20210;-52
2021/04/22 07:50:13;;;;;;;19.23;14.00;;;12.80;95.40;;;;;;5108349;28;21838;-54
2021/04/22 07:52:39;;;;;;;19.35;13.15;;;12.80;94.50;;;;;;5096952;28;20217;-55
2021/04/22 07:55:08;;;;;;;17.00;13.40;;;12.70;94.30;;;;;;5103553;28;20182;-54
2021/04/22 07:57:35;;;;;;;17.08;13.23;;;12.80;93.90;;;;;;5115539;27;20649;-53
2021/04/22 08:00:05;;;;;;;16.73;14.23;;;12.90;93.30;;;;;;5109370;28;20191;-54
2021/04/22 08:02:31;;;;;;;14.68;12.75;;;13.20;93.20;;;;;;5106213;28;20677;-54
2021/04/22 08:04:56;;;;;;;15.73;13.10;;;12.90;93.10;;;;;;5110376;28;20274;-55
2021/04/22 08:07:22;;;;;;;16.73;13.10;;;13.10;93.10;;;;;;5106579;28;20554;-55
2021/04/22 08:09:48;;;;;;;14.50;12.53;;;13.10;93.50;;;;;;5109233;28;20285;-54
2021/04/22 08:12:13;;;;;;;14.33;11.97;;;13.20;93.00;;;;;;5105402;28;20214;-53
2021/04/22 08:14:39;;;;;;;14.43;11.63;;;13.10;92.30;;;;;;5108572;28;20184;-54
2021/04/22 08:17:05;;;;;;;15.90;10.73;;;13.10;92.20;;;;;;5109513;28;20184;-54
2021/04/22 08:19:33;;;;;;;40.33;15.80;;;13.50;91.90;;;;;;5109800;28;20519;-54
2021/04/22 08:22:00;;;;;;;15.43;12.10;;;13.70;91.40;;;;;;5108945;28;20561;-54
2021/04/22 08:24:26;;;;;;;14.20;11.32;;;13.40;90.80;;;;;;5106652;28;20184;-54
2021/04/22 08:26:52;;;;;;;14.75;11.52;;;13.60;90.50;;;;;;5107102;28;20219;-54
2021/04/22 08:29:17;;;;;;;15.33;10.60;;;13.50;90.70;;;;;;5101672;28;20611;-53
2021/04/22 08:31:43;;;;;;;14.50;10.90;;;13.60;90.40;;;;;;5102366;28;20215;-53
2021/04/22 08:34:09;;;;;;;12.20;10.37;;;14.00;90.30;;;;;;5104673;28;20186;-56
2021/04/22 08:36:36;;;;;;;14.23;11.00;;;14.50;89.20;;;;;;5103199;28;20506;-54
2021/04/22 08:39:07;;;;;;;11.60;10.35;;;14.80;85.90;;;;;;5103721;28;20631;-54
2021/04/22 08:41:33;;;;;;;17.77;12.25;;;14.40;83.60;;;;;;5100911;28;20636;-54
2021/04/22 08:44:02;;;;;;;12.15;10.25;;;14.60;83.30;;;;;;5107335;28;20233;-55
2021/04/22 08:46:29;;;;;;;13.45;10.52;;;15.50;83.90;;;;;;5107211;28;20187;-54
2021/04/22 08:48:56;;;;;;;10.93;9.05;;;16.50;79.00;;;;;;5098510;28;20187;-57
2021/04/22 08:51:22;;;;;;;12.25;9.88;;;17.10;75.10;;;;;;5106979;28;20258;-57
2021/04/22 08:53:49;;;;;;;12.77;10.25;;;16.60;75.00;;;;;;5105162;28;20214;-57
2021/04/22 08:56:18;;;;;;;14.70;10.30;;;16.20;76.00;;;;;;5106448;28;20176;-53
2021/04/22 08:58:44;;;;;;;13.15;11.20;;;16.20;76.40;;;;;;5107205;28;20183;-54
2021/04/22 09:01:12;;;;;;;12.38;11.07;;;16.50;75.40;;;;;;5097001;28;20179;-54
2021/04/22 09:03:40;;;;;;;15.35;10.23;;;16.60;74.40;;;;;;5106847;28;20187;-55
2021/04/22 09:06:06;;;;;;;12.10;9.32;;;17.10;72.60;;;;;;5101331;28;20274;-55
2021/04/22 09:08:35;;;;;;;10.95;9.48;;;17.00;70.70;;;;;;5105518;28;20187;-55
2021/04/22 09:11:02;;;;;;;11.40;9.60;;;17.10;71.20;;;;;;5105584;28;20696;-54
2021/04/22 09:13:28;;;;;;;10.02;8.90;;;17.90;69.70;;;;;;5104767;28;20282;-56
2021/04/22 09:16:09;;;;;;;11.83;10.37;;;18.30;66.80;;;;;;5106715;28;20263;-54
2021/04/22 09:18:47;;;;;;;10.98;9.88;;;18.60;66.40;;;;;;5105194;28;20512;-55
2021/04/22 09:21:29;;;;;;;13.00;9.90;;;18.90;64.40;;;;;;5100091;28;20214;-54
2021/04/22 09:24:16;;;;;;;12.43;10.88;;;19.70;63.40;;;;;;5105570;28;20601;-55
2021/04/22 09:27:02;;;;;;;11.43;10.30;;;19.50;60.70;;;;;;5106408;28;20183;-55
2021/04/22 09:29:35;;;;;;;10.10;8.55;;;19.40;60.20;;;;;;5100747;28;20179;-55
2021/04/22 09:32:38;;;;;;;10.60;9.25;;;18.40;60.80;;;;;;5103325;28;20203;-52
2021/04/22 09:35:03;;;;;;;11.90;10.32;;;17.70;64.10;;;;;;5095160;28;20309;-54
2021/04/22 09:37:45;;;;;;;11.13;10.03;;;18.10;63.30;;;;;;5105316;28;20286;-55
2021/04/22 09:40:24;;;;;;;10.20;9.00;;;19.00;62.10;;;;;;5103859;28;20186;-54
2021/04/22 09:42:51;;;;;;;12.48;9.68;;;19.80;59.70;;;;;;5098664;28;20235;-55
2021/04/22 09:45:20;;;;;;;12.57;8.35;;;20.10;58.70;;;;;;5102059;28;20639;-54
2021/04/22 09:47:46;;;;;;;9.30;7.88;;;20.30;57.50;;;;;;5123591;28;20182;-55
2021/04/22 09:50:16;;;;;;;12.17;9.20;;;20.50;58.60;;;;;;5103913;28;20187;-59
2021/04/22 09:52:45;;;;;;;8.48;7.57;;;19.60;58.30;;;;;;5106704;28;20480;-55
2021/04/22 09:55:14;;;;;;;12.00;7.45;;;20.30;55.70;;;;;;5117414;28;20202;-53
2021/04/22 09:57:41;;;;;;;9.50;8.30;;;19.10;56.10;;;;;;5104742;28;20427;-52
2021/04/22 10:00:29;;;;;;;9.25;7.07;;;19.20;57.10;;;;;;5105169;28;20235;-53
2021/04/22 10:03:09;;;;;;;9.82;8.25;;;19.80;55.80;;;;;;5105874;28;20207;-52
2021/04/22 10:05:37;;;;;;;11.25;6.95;;;19.40;55.30;;;;;;5105736;28;20248;-50
2021/04/22 10:08:13;;;;;;;10.15;6.38;;;19.20;55.50;;;;;;5105934;28;20184;-50
2021/04/22 10:10:59;;;;;;;8.20;6.22;;;19.20;55.80;;;;;;5105647;28;20540;-51
2021/04/22 10:13:25;;;;;;;9.98;6.65;;;19.20;54.30;;;;;;5124725;27;20203;-52
2021/04/22 10:15:53;;;;;;;7.40;6.67;;;19.20;53.90;;;;;;5109926;28;20198;-51
2021/04/22 10:18:19;;;;;;;6.88;6.18;;;18.50;52.80;;;;;;5109668;28;20761;-53
2021/04/22 10:20:45;;;;;;;7.50;6.70;;;18.20;54.10;;;;;;5101624;28;20936;-56
2021/04/22 10:23:12;;;;;;;7.30;5.80;;;18.60;53.50;;;;;;5107335;28;20264;-56
2021/04/22 10:25:42;;;;;;;6.57;5.22;;;18.00;52.80;;;;;;5109324;28;20452;-55
2021/04/22 10:28:14;;;;;;;5.60;5.10;;;17.50;52.90;;;;;;5109519;28;20189;-55
2021/04/22 10:30:42;;;;;;;6.93;5.20;;;17.50;52.90;;;;;;5106532;28;20195;-55
2021/04/22 10:33:08;;;;;;;7.45;5.47;;;18.00;52.10;;;;;;5107788;28;20218;-55
2021/04/22 10:35:37;;;;;;;5.93;5.32;;;18.40;52.50;;;;;;5107170;28;20171;-55
2021/04/22 10:38:06;;;;;;;5.90;5.30;;;17.80;52.70;;;;;;5125745;27;20609;-56
2021/04/22 10:40:35;;;;;;;8.75;5.80;;;17.60;53.70;;;;;;5099927;28;20180;-56
2021/04/22 10:43:03;;;;;;;6.75;5.40;;;17.60;52.80;;;;;;5105947;28;20211;-55
2021/04/22 10:45:30;;;;;;;5.85;5.00;;;17.90;51.90;;;;;;5106861;28;20645;-55
2021/04/22 10:47:56;;;;;;;5.43;4.30;;;18.20;50.80;;;;;;5110268;28;20183;-56
2021/04/22 10:50:33;;;;;;;5.30;3.73;;;18.80;48.90;;;;;;5107932;28;20727;-56
2021/04/22 10:53:01;;;;;;;4.82;4.32;;;19.30;43.00;;;;;;5107883;28;20283;-56
2021/04/22 10:55:32;;;;;;;9.10;4.63;;;19.20;47.40;;;;;;5109887;28;20176;-55
2021/04/22 10:58:32;;;;;;;5.10;4.40;;;19.20;47.20;;;;;;5104798;28;20175;-55
2021/04/22 11:01:11;;;;;;;5.28;3.97;;;19.60;47.50;;;;;;5081030;28;20184;-55
2021/04/22 11:03:40;;;;;;;4.28;3.80;;;19.60;43.80;;;;;;5108136;28;20214;-55
2021/04/22 11:06:15;;;;;;;6.97;4.60;;;18.90;42.10;;;;;;5104926;28;20211;-54
2021/04/22 11:08:42;;;;;;;4.90;4.10;;;18.20;43.80;;;;;;5108055;28;20210;-55
2021/04/22 11:11:35;;;;;;;6.03;4.25;;;17.80;45.30;;;;;;5108570;28;20297;-56
2021/04/22 11:14:11;;;;;;;6.45;3.90;;;18.00;46.20;;;;;;5102473;28;20203;-56
2021/04/22 11:16:40;;;;;;;7.32;4.40;;;17.40;45.40;;;;;;5103590;28;20190;-55
2021/04/22 11:19:33;;;;;;;5.88;4.00;;;17.30;46.10;;;;;;5100770;28;20192;-55
2021/04/22 11:22:25;;;;;;;5.85;4.20;;;18.00;46.10;;;;;;5108310;28;20211;-55
2021/04/22 11:24:55;;;;;;;5.25;3.90;;;18.40;45.50;;;;;;5092632;28;20335;-55
2021/04/22 11:27:22;;;;;;;4.80;4.30;;;18.20;44.00;;;;;;5100639;28;20191;-55
2021/04/22 11:29:56;;;;;;;9.88;4.45;;;18.40;45.10;;;;;;5108870;28;20259;-55
2021/04/22 11:32:28;;;;;;;4.63;3.72;;;18.80;42.20;;;;;;5124305;27;20206;-54
2021/04/22 11:34:57;;;;;;;6.68;4.97;;;19.30;41.30;;;;;;5102464;28;20179;-54
2021/04/22 11:37:37;;;;;;;7.38;5.55;;;18.90;44.20;;;;;;5108766;28;20567;-54
2021/04/22 11:40:15;;;;;;;4.75;4.15;;;19.30;44.00;;;;;;5107535;28;20592;-56
2021/04/22 11:42:43;;;;;;;6.03;4.82;;;18.80;44.80;;;;;;5105027;28;20347;-55
2021/04/22 11:45:11;;;;;;;5.03;4.05;;;18.90;45.00;;;;;;5108476;28;20188;-57
2021/04/22 11:47:51;;;;;;;6.10;4.28;;;18.40;44.10;;;;;;5103182;28;20396;-54
2021/04/22 11:50:20;;;;;;;6.55;3.83;;;18.70;44.30;;;;;;5107970;28;20187;-55
2021/04/22 11:52:51;;;;;;;7.18;4.43;;;19.20;43.50;;;;;;5106400;28;20252;-53
2021/04/22 11:55:28;;;;;;;6.97;5.10;;;19.50;43.20;;;;;;5107894;28;20545;-55
2021/04/22 11:57:53;;;;;;;4.93;3.92;;;19.40;42.80;;;;;;5106633;28;20207;-54
2021/04/22 12:00:20;;;;;;;3.63;3.30;;;18.90;42.80;;;;;;5108198;28;20215;-55
2021/04/22 12:02:47;;;;;;;5.90;4.05;;;18.60;43.00;;;;;;5107123;28;20562;-55
2021/04/22 12:05:20;;;;;;;5.20;4.45;;;18.60;44.60;;;;;;5107887;28;20187;-54
2021/04/22 12:08:05;;;;;;;5.93;3.90;;;18.50;45.00;;;;;;5100940;28;20203;-54
2021/04/22 12:10:33;;;;;;;5.38;4.38;;;18.10;42.70;;;;;;5104276;27;20183;-54
2021/04/22 12:13:10;;;;;;;7.00;4.15;;;17.90;44.50;;;;;;5105588;28;20721;-54
2021/04/22 12:15:38;;;;;;;7.60;4.90;;;18.00;46.00;;;;;;5101694;28;20183;-55
2021/04/22 12:18:04;;;;;;;6.50;4.70;;;18.00;47.00;;;;;;5101718;28;20184;-55
2021/04/22 12:20:30;;;;;;;6.47;4.70;;;18.10;47.30;;;;;;5107863;28;20195;-54
2021/04/22 12:22:57;;;;;;;8.10;4.30;;;17.90;46.70;;;;;;5106416;28;20563;-55
2021/04/22 12:25:24;;;;;;;7.95;4.95;;;17.90;46.20;;;;;;5108205;28;20195;-55
2021/04/22 12:27:56;;;;;;;7.75;3.97;;;18.00;45.60;;;;;;5102499;28;20477;-54
2021/04/22 12:30:26;;;;;;;5.70;3.63;;;17.70;45.70;;;;;;5107643;28;20214;-54
2021/04/22 12:33:06;;;;;;;5.55;3.70;;;17.70;44.70;;;;;;5106620;28;20211;-55
2021/04/22 12:35:33;;;;;;;6.15;4.53;;;17.80;45.70;;;;;;5104236;28;20633;-56
2021/04/22 12:38:15;;;;;;;9.38;4.97;;;17.30;46.70;;;;;;5097379;28;20209;-52